createdAt,value
2018-04-14T00:00:24.239Z,1013.03
2018-04-14T00:01:51.612Z,1013.15
2018-04-14T00:03:18.817Z,1013.27
2018-04-14T00:04:46.258Z,1013.28
2018-04-14T00:06:13.477Z,1013.35
2018-04-14T00:07:40.573Z,1013.42
2018-04-14T00:09:07.782Z,1013.47
2018-04-14T00:10:35.186Z,1013.49
2018-04-14T00:12:02.229Z,1013.52
2018-04-14T00:13:29.641Z,1013.53
2018-04-14T00:14:56.976Z,1013.57
2018-04-14T00:16:24.466Z,1013.44
2018-04-14T00:17:51.597Z,1013.38
2018-04-14T00:19:18.835Z,1013.39
2018-04-14T00:20:46.058Z,1013.39
2018-04-14T00:22:13.274Z,1013.40
2018-04-14T00:23:40.332Z,1013.40
2018-04-14T00:25:07.026Z,1013.46
2018-04-14T00:26:34.192Z,1013.45
2018-04-14T00:28:01.574Z,1013.39
2018-04-14T00:29:28.388Z,1013.36
2018-04-14T00:30:55.625Z,1013.33
2018-04-14T00:32:22.909Z,1013.32
2018-04-14T00:33:49.909Z,1013.33
2018-04-14T00:35:19.887Z,1013.33
2018-04-14T00:36:44.092Z,1013.33
2018-04-14T00:38:11.113Z,1013.34
2018-04-14T00:39:38.286Z,1013.38
2018-04-14T00:41:05.701Z,1013.36
2018-04-14T00:42:33.098Z,1013.45
2018-04-14T00:44:00.251Z,1013.45
2018-04-14T00:45:27.323Z,1013.45
2018-04-14T00:46:54.563Z,1013.44
2018-04-14T00:48:21.827Z,1013.44
2018-04-14T00:49:56.782Z,1013.47
2018-04-14T00:51:16.006Z,1013.43
2018-04-14T00:52:43.096Z,1013.40
2018-04-14T00:54:10.416Z,1013.37
2018-04-14T00:55:37.663Z,1013.36
2018-04-14T00:57:04.953Z,1013.34
2018-04-14T00:58:32.043Z,1013.38
2018-04-14T00:59:59.465Z,1013.40
2018-04-14T01:01:26.793Z,1013.48
2018-04-14T01:02:54.025Z,1013.49
2018-04-14T01:04:21.315Z,1013.52
2018-04-14T01:05:48.535Z,1013.50
2018-04-14T01:07:15.781Z,1013.53
2018-04-14T01:08:43.059Z,1013.56
2018-04-14T01:10:10.264Z,1013.63
2018-04-14T01:11:37.755Z,1013.67
2018-04-14T01:13:05.137Z,1013.77
2018-04-14T01:14:32.716Z,1013.79
2018-04-14T01:15:59.554Z,1013.75
2018-04-14T01:17:26.819Z,1013.67
2018-04-14T01:18:54.191Z,1013.51
2018-04-14T01:20:21.687Z,1013.40
2018-04-14T01:21:49.060Z,1013.37
2018-04-14T01:23:16.260Z,1013.39
2018-04-14T01:24:43.452Z,1013.37
2018-04-14T01:26:10.772Z,1013.39
2018-04-14T01:27:38.110Z,1013.41
2018-04-14T01:29:05.400Z,1013.40
2018-04-14T01:30:32.779Z,1013.37
2018-04-14T01:31:59.716Z,1013.28
2018-04-14T01:33:27.210Z,1013.16
2018-04-14T01:34:54.333Z,1013.01
2018-04-14T01:36:21.462Z,1012.98
2018-04-14T01:37:48.610Z,1013.07
2018-04-14T01:39:15.872Z,1013.19
2018-04-14T01:40:43.013Z,1013.21
2018-04-14T01:42:10.232Z,1013.19
2018-04-14T01:43:37.665Z,1013.07
2018-04-14T01:45:05.018Z,1013.05
2018-04-14T01:46:32.258Z,1013.07
2018-04-14T01:47:59.650Z,1013.09
2018-04-14T01:49:27.049Z,1013.04
2018-04-14T01:50:54.421Z,1012.94
2018-04-14T01:52:21.814Z,1012.89
2018-04-14T01:53:49.025Z,1012.93
2018-04-14T01:55:16.450Z,1012.99
2018-04-14T01:56:43.583Z,1013.05
2018-04-14T01:58:10.849Z,1013.18
2018-04-14T01:59:38.173Z,1013.29
2018-04-14T02:01:05.351Z,1013.34
2018-04-14T02:02:32.771Z,1013.41
2018-04-14T02:04:00.201Z,1013.40
2018-04-14T02:05:27.604Z,1013.37
2018-04-14T02:06:55.021Z,1013.37
2018-04-14T02:08:22.284Z,1013.38
2018-04-14T02:09:49.701Z,1013.37
2018-04-14T02:11:16.899Z,1013.38
2018-04-14T02:12:44.284Z,1013.36
2018-04-14T02:14:11.646Z,1013.35
2018-04-14T02:15:38.900Z,1013.35
2018-04-14T02:17:06.238Z,1013.36
2018-04-14T02:18:33.540Z,1013.38
2018-04-14T02:20:01.093Z,1013.37
2018-04-14T02:21:28.390Z,1013.39
2018-04-14T02:22:55.703Z,1013.39
2018-04-14T02:24:23.045Z,1013.35
2018-04-14T02:25:50.345Z,1013.33
2018-04-14T02:27:17.658Z,1013.32
2018-04-14T02:28:45.020Z,1013.29
2018-04-14T02:30:12.351Z,1013.25
2018-04-14T02:31:39.777Z,1013.25
2018-04-14T02:33:07.092Z,1013.30
2018-04-14T02:34:34.328Z,1013.26
2018-04-14T02:36:01.683Z,1013.27
2018-04-14T02:37:29.006Z,1013.24
2018-04-14T02:38:56.203Z,1013.26
2018-04-14T02:40:23.651Z,1013.31
2018-04-14T02:41:51.172Z,1013.32
2018-04-14T02:43:18.717Z,1013.31
2018-04-14T02:44:46.073Z,1013.31
2018-04-14T02:46:13.239Z,1013.30
2018-04-14T02:47:40.367Z,1013.29
2018-04-14T02:49:07.448Z,1013.33
2018-04-14T02:50:34.862Z,1013.38
2018-04-14T02:52:02.096Z,1013.41
2018-04-14T02:53:29.480Z,1013.41
2018-04-14T02:54:56.786Z,1013.38
2018-04-14T02:56:24.042Z,1013.33
2018-04-14T02:57:51.312Z,1013.34
2018-04-14T02:59:18.675Z,1013.36
2018-04-14T03:00:46.093Z,1013.37
2018-04-14T03:02:13.378Z,1013.38
2018-04-14T03:03:40.801Z,1013.37
2018-04-14T03:05:07.957Z,1013.36
2018-04-14T03:06:35.273Z,1013.34
2018-04-14T03:08:02.472Z,1013.35
2018-04-14T03:09:29.769Z,1013.36
2018-04-14T03:10:57.304Z,1013.38
2018-04-14T03:12:24.622Z,1013.41
2018-04-14T03:13:51.775Z,1013.40
2018-04-14T03:15:19.091Z,1013.44
2018-04-14T03:16:46.365Z,1013.48
2018-04-14T03:18:13.725Z,1013.50
2018-04-14T03:19:40.947Z,1013.49
2018-04-14T03:21:08.251Z,1013.50
2018-04-14T03:22:35.561Z,1013.51
2018-04-14T03:24:02.971Z,1013.50
2018-04-14T03:25:30.574Z,1013.51
2018-04-14T03:26:57.818Z,1013.49
2018-04-14T03:28:25.185Z,1013.50
2018-04-14T03:29:52.507Z,1013.49
2018-04-14T03:31:19.989Z,1013.49
2018-04-14T03:32:47.222Z,1013.48
2018-04-14T03:34:14.601Z,1013.46
2018-04-14T03:35:41.940Z,1013.42
2018-04-14T03:37:09.235Z,1013.38
2018-04-14T03:38:36.406Z,1013.36
2018-04-14T03:40:03.807Z,1013.35
2018-04-14T03:41:31.124Z,1013.37
2018-04-14T03:42:58.494Z,1013.39
2018-04-14T03:44:25.655Z,1013.40
2018-04-14T03:45:53.161Z,1013.43
2018-04-14T03:47:20.416Z,1013.42
2018-04-14T03:48:47.798Z,1013.42
2018-04-14T03:50:15.146Z,1013.42
2018-04-14T03:51:42.505Z,1013.46
2018-04-14T03:53:09.716Z,1013.49
2018-04-14T03:54:37.186Z,1013.56
2018-04-14T03:56:04.508Z,1013.63
2018-04-14T03:57:31.676Z,1013.66
2018-04-14T03:58:59.026Z,1013.71
2018-04-14T04:00:26.547Z,1013.75
2018-04-14T04:01:53.758Z,1013.75
2018-04-14T04:03:21.214Z,1013.77
2018-04-14T04:04:48.488Z,1013.78
2018-04-14T04:06:15.986Z,1013.79
2018-04-14T04:07:43.240Z,1013.77
2018-04-14T04:09:10.451Z,1013.76
2018-04-14T04:10:37.706Z,1013.76
2018-04-14T04:12:05.183Z,1013.75
2018-04-14T04:13:32.514Z,1013.76
2018-04-14T04:14:59.751Z,1013.80
2018-04-14T04:16:27.230Z,1013.81
2018-04-14T04:17:54.477Z,1013.84
2018-04-14T04:19:21.724Z,1013.90
2018-04-14T04:20:49.093Z,1013.92
2018-04-14T04:22:16.408Z,1013.94
2018-04-14T04:23:43.737Z,1013.97
2018-04-14T04:25:10.833Z,1014.02
2018-04-14T04:26:38.025Z,1014.03
2018-04-14T04:28:05.197Z,1014.02
2018-04-14T04:29:32.736Z,1014.02
2018-04-14T04:30:59.894Z,1013.98
2018-04-14T04:32:27.251Z,1014.00
2018-04-14T04:33:54.672Z,1013.97
2018-04-14T04:35:22.040Z,1013.94
2018-04-14T04:36:49.338Z,1013.95
2018-04-14T04:38:16.670Z,1013.96
2018-04-14T04:39:43.914Z,1013.99
2018-04-14T04:41:11.123Z,1014.01
2018-04-14T04:42:38.259Z,1014.03
2018-04-14T04:44:05.627Z,1014.06
2018-04-14T04:45:33.041Z,1014.06
2018-04-14T04:47:00.356Z,1014.06
2018-04-14T04:48:27.780Z,1014.06
2018-04-14T04:49:55.216Z,1014.06
2018-04-14T04:51:22.650Z,1014.08
2018-04-14T04:52:50.107Z,1014.11
2018-04-14T04:54:17.443Z,1014.15
2018-04-14T04:55:44.699Z,1014.16
2018-04-14T04:57:11.892Z,1014.20
2018-04-14T04:58:39.164Z,1014.25
2018-04-14T05:00:06.382Z,1014.29
2018-04-14T05:01:33.854Z,1014.36
2018-04-14T05:03:01.321Z,1014.45
2018-04-14T05:04:28.514Z,1014.48
2018-04-14T05:05:55.714Z,1014.56
2018-04-14T05:07:23.072Z,1014.60
2018-04-14T05:08:50.255Z,1014.61
2018-04-14T05:10:17.559Z,1014.61
2018-04-14T05:11:44.768Z,1014.61
2018-04-14T05:13:11.927Z,1014.59
2018-04-14T05:14:39.074Z,1014.61
2018-04-14T05:16:06.515Z,1014.58
2018-04-14T05:17:34.091Z,1014.59
2018-04-14T05:19:01.433Z,1014.56
2018-04-14T05:20:28.675Z,1014.56
2018-04-14T05:21:56.016Z,1014.55
2018-04-14T05:23:23.334Z,1014.55
2018-04-14T05:24:50.861Z,1014.53
2018-04-14T05:26:18.221Z,1014.51
2018-04-14T05:27:45.510Z,1014.48
2018-04-14T05:29:12.882Z,1014.48
2018-04-14T05:30:40.207Z,1014.52
2018-04-14T05:32:07.685Z,1014.61
2018-04-14T05:33:35.070Z,1014.63
2018-04-14T05:35:02.419Z,1014.66
2018-04-14T05:36:29.709Z,1014.67
2018-04-14T05:37:57.003Z,1014.71
2018-04-14T05:39:24.284Z,1014.75
2018-04-14T05:40:51.727Z,1014.78
2018-04-14T05:42:18.931Z,1014.78
2018-04-14T05:43:46.193Z,1014.79
2018-04-14T05:45:13.465Z,1014.81
2018-04-14T05:46:40.700Z,1014.85
2018-04-14T05:48:07.829Z,1014.88
2018-04-14T05:49:35.062Z,1014.98
2018-04-14T05:51:02.537Z,1015.06
2018-04-14T05:52:37.611Z,1015.13
2018-04-14T05:53:56.663Z,1015.17
2018-04-14T05:55:23.969Z,1015.23
2018-04-14T05:56:51.427Z,1015.28
2018-04-14T05:58:18.585Z,1015.31
2018-04-14T05:59:45.888Z,1015.36
2018-04-14T06:01:13.479Z,1015.36
2018-04-14T06:02:40.573Z,1015.37
2018-04-14T06:04:07.624Z,1015.36
2018-04-14T06:05:34.933Z,1015.38
2018-04-14T06:07:02.247Z,1015.41
2018-04-14T06:08:29.472Z,1015.46
2018-04-14T06:09:56.849Z,1015.48
2018-04-14T06:11:23.982Z,1015.51
2018-04-14T06:12:51.280Z,1015.56
2018-04-14T06:14:18.655Z,1015.59
2018-04-14T06:15:45.876Z,1015.66
2018-04-14T06:17:13.219Z,1015.70
2018-04-14T06:18:40.632Z,1015.69
2018-04-14T06:20:07.632Z,1015.71
2018-04-14T06:21:35.016Z,1015.72
2018-04-14T06:23:02.301Z,1015.78
2018-04-14T06:24:29.611Z,1015.82
2018-04-14T06:25:57.110Z,1015.89
2018-04-14T06:27:24.446Z,1015.94
2018-04-14T06:28:51.577Z,1015.99
2018-04-14T06:30:18.973Z,1015.99
2018-04-14T06:31:46.344Z,1016.04
2018-04-14T06:33:13.673Z,1016.07
2018-04-14T06:34:40.958Z,1016.06
2018-04-14T06:36:08.177Z,1016.07
2018-04-14T06:37:35.606Z,1016.09
2018-04-14T06:39:02.789Z,1016.10
2018-04-14T06:40:30.108Z,1016.12
2018-04-14T06:41:57.350Z,1016.15
2018-04-14T06:43:24.666Z,1016.14
2018-04-14T06:44:51.899Z,1016.14
2018-04-14T06:46:19.008Z,1016.14
2018-04-14T06:47:46.467Z,1016.08
2018-04-14T06:49:13.701Z,1016.08
2018-04-14T06:50:40.967Z,1016.08
2018-04-14T06:52:07.992Z,1016.06
2018-04-14T06:53:35.106Z,1016.06
2018-04-14T06:55:02.286Z,1016.04
2018-04-14T06:56:29.581Z,1016.03
2018-04-14T06:57:57.046Z,1016.02
2018-04-14T06:59:24.285Z,1016.02
2018-04-14T07:00:51.683Z,1016.03
2018-04-14T07:02:19.056Z,1016.06
2018-04-14T07:03:46.426Z,1016.10
2018-04-14T07:05:13.569Z,1016.13
2018-04-14T07:06:41.036Z,1016.14
2018-04-14T07:08:08.236Z,1016.17
2018-04-14T07:09:35.472Z,1016.17
2018-04-14T07:11:02.761Z,1016.20
2018-04-14T07:12:30.123Z,1016.22
2018-04-14T07:13:57.614Z,1016.22
2018-04-14T07:15:24.613Z,1016.22
2018-04-14T07:16:51.879Z,1016.23
2018-04-14T07:18:19.321Z,1016.27
2018-04-14T07:19:46.386Z,1016.28
2018-04-14T07:21:13.555Z,1016.32
2018-04-14T07:22:41.044Z,1016.31
2018-04-14T07:24:07.994Z,1016.31
2018-04-14T07:25:35.427Z,1016.34
2018-04-14T07:27:02.645Z,1016.36
2018-04-14T07:28:30.078Z,1016.36
2018-04-14T07:29:57.322Z,1016.39
2018-04-14T07:31:24.670Z,1016.41
2018-04-14T07:32:51.941Z,1016.41
2018-04-14T07:34:19.102Z,1016.46
2018-04-14T07:35:46.426Z,1016.49
2018-04-14T07:37:13.768Z,1016.50
2018-04-14T07:38:41.031Z,1016.50
2018-04-14T07:40:08.326Z,1016.58
2018-04-14T07:41:35.624Z,1016.60
2018-04-14T07:43:02.989Z,1016.62
2018-04-14T07:44:30.291Z,1016.63
2018-04-14T07:45:57.661Z,1016.64
2018-04-14T07:47:24.859Z,1016.66
2018-04-14T07:48:52.277Z,1016.66
2018-04-14T07:50:19.503Z,1016.67
2018-04-14T07:51:46.750Z,1016.66
2018-04-14T07:53:13.981Z,1016.67
2018-04-14T07:54:41.283Z,1016.68
2018-04-14T07:56:08.505Z,1016.68
2018-04-14T07:57:35.949Z,1016.68
2018-04-14T07:59:03.103Z,1016.72
2018-04-14T08:00:30.521Z,1016.75
2018-04-14T08:01:57.703Z,1016.77
2018-04-14T08:03:24.928Z,1016.78
2018-04-14T08:04:51.990Z,1016.80
2018-04-14T08:06:19.432Z,1016.82
2018-04-14T08:07:46.814Z,1016.87
2018-04-14T08:09:14.080Z,1016.91
2018-04-14T08:10:41.320Z,1016.91
2018-04-14T08:12:08.591Z,1016.93
2018-04-14T08:13:35.835Z,1016.97
2018-04-14T08:15:03.095Z,1017.00
2018-04-14T08:16:30.292Z,1017.04
2018-04-14T08:17:57.544Z,1017.07
2018-04-14T08:19:24.874Z,1017.10
2018-04-14T08:20:52.146Z,1017.11
2018-04-14T08:22:19.592Z,1017.18
2018-04-14T08:23:47.053Z,1017.22
2018-04-14T08:25:14.264Z,1017.23
2018-04-14T08:26:41.710Z,1017.25
2018-04-14T08:28:08.890Z,1017.25
2018-04-14T08:29:36.179Z,1017.23
2018-04-14T08:31:03.477Z,1017.27
2018-04-14T08:32:30.763Z,1017.25
2018-04-14T08:33:58.244Z,1017.25
2018-04-14T08:35:25.671Z,1017.25
2018-04-14T08:36:52.886Z,1017.26
2018-04-14T08:38:20.231Z,1017.28
2018-04-14T08:39:47.631Z,1017.32
2018-04-14T08:41:14.844Z,1017.34
2018-04-14T08:42:41.895Z,1017.34
2018-04-14T08:44:09.230Z,1017.38
2018-04-14T08:45:36.781Z,1017.38
2018-04-14T08:47:03.983Z,1017.40
2018-04-14T08:48:31.266Z,1017.44
2018-04-14T08:49:58.611Z,1017.42
2018-04-14T08:51:25.912Z,1017.44
2018-04-14T08:52:53.267Z,1017.45
2018-04-14T08:54:20.539Z,1017.43
2018-04-14T08:55:47.905Z,1017.45
2018-04-14T08:57:15.460Z,1017.47
2018-04-14T08:58:42.475Z,1017.50
2018-04-14T09:00:09.526Z,1017.51
2018-04-14T09:01:36.960Z,1017.53
2018-04-14T09:03:04.048Z,1017.54
2018-04-14T09:04:31.409Z,1017.54
2018-04-14T09:05:58.551Z,1017.56
2018-04-14T09:07:25.797Z,1017.54
2018-04-14T09:08:53.109Z,1017.57
2018-04-14T09:10:20.504Z,1017.55
2018-04-14T09:11:47.752Z,1017.55
2018-04-14T09:13:15.033Z,1017.55
2018-04-14T09:14:42.319Z,1017.54
2018-04-14T09:16:09.648Z,1017.57
2018-04-14T09:17:36.874Z,1017.58
2018-04-14T09:19:04.207Z,1017.60
2018-04-14T09:20:31.524Z,1017.58
2018-04-14T09:21:58.964Z,1017.61
2018-04-14T09:23:26.118Z,1017.63
2018-04-14T09:24:53.511Z,1017.65
2018-04-14T09:26:20.806Z,1017.67
2018-04-14T09:27:47.871Z,1017.68
2018-04-14T09:29:15.208Z,1017.70
2018-04-14T09:30:42.120Z,1017.71
2018-04-14T09:32:09.212Z,1017.73
2018-04-14T09:33:36.556Z,1017.76
2018-04-14T09:35:03.838Z,1017.81
2018-04-14T09:36:31.172Z,1017.84
2018-04-14T09:37:58.552Z,1017.84
2018-04-14T09:39:25.761Z,1017.88
2018-04-14T09:40:53.076Z,1017.90
2018-04-14T09:42:23.243Z,1017.92
2018-04-14T09:43:47.561Z,1017.91
2018-04-14T09:45:14.774Z,1017.94
2018-04-14T09:46:42.061Z,1017.95
2018-04-14T09:48:09.169Z,1017.99
2018-04-14T09:49:36.512Z,1017.99
2018-04-14T09:51:03.707Z,1018.02
2018-04-14T09:52:31.058Z,1018.02
2018-04-14T09:53:58.264Z,1018.04
2018-04-14T09:55:25.549Z,1018.06
2018-04-14T09:56:52.824Z,1018.06
2018-04-14T09:58:20.061Z,1018.07
2018-04-14T09:59:47.318Z,1018.06
2018-04-14T10:01:14.810Z,1018.06
2018-04-14T10:02:42.247Z,1018.07
2018-04-14T10:04:09.190Z,1018.09
2018-04-14T10:05:36.519Z,1018.10
2018-04-14T10:07:03.894Z,1018.11
2018-04-14T10:08:31.276Z,1018.11
2018-04-14T10:09:58.308Z,1018.12
2018-04-14T10:11:25.724Z,1018.14
2018-04-14T10:12:53.080Z,1018.16
2018-04-14T10:14:20.361Z,1018.20
2018-04-14T10:15:47.742Z,1018.18
2018-04-14T10:17:15.076Z,1018.21
2018-04-14T10:18:42.590Z,1018.21
2018-04-14T10:20:09.551Z,1018.22
2018-04-14T10:21:36.835Z,1018.25
2018-04-14T10:23:03.953Z,1018.26
2018-04-14T10:24:31.248Z,1018.26
2018-04-14T10:25:58.592Z,1018.30
2018-04-14T10:27:25.757Z,1018.34
2018-04-14T10:28:53.225Z,1018.35
2018-04-14T10:30:20.743Z,1018.35
2018-04-14T10:31:48.182Z,1018.36
2018-04-14T10:33:15.418Z,1018.40
2018-04-14T10:34:42.862Z,1018.42
2018-04-14T10:36:09.893Z,1018.45
2018-04-14T10:37:37.260Z,1018.45
2018-04-14T10:39:04.441Z,1018.45
2018-04-14T10:40:31.707Z,1018.46
2018-04-14T10:41:58.993Z,1018.49
2018-04-14T10:43:26.223Z,1018.47
2018-04-14T10:44:53.689Z,1018.50
2018-04-14T10:46:20.645Z,1018.51
2018-04-14T10:47:48.051Z,1018.54
2018-04-14T10:49:15.402Z,1018.58
2018-04-14T10:50:42.838Z,1018.55
2018-04-14T10:52:10.014Z,1018.55
2018-04-14T10:53:37.088Z,1018.60
2018-04-14T10:55:04.456Z,1018.62
2018-04-14T10:56:31.777Z,1018.63
2018-04-14T10:57:59.277Z,1018.63
2018-04-14T10:59:26.760Z,1018.65
2018-04-14T11:00:53.908Z,1018.65
2018-04-14T11:02:21.154Z,1018.67
2018-04-14T11:03:48.620Z,1018.69
2018-04-14T11:05:15.598Z,1018.67
2018-04-14T11:06:42.846Z,1018.70
2018-04-14T11:08:10.241Z,1018.72
2018-04-14T11:09:37.475Z,1018.74
2018-04-14T11:11:04.829Z,1018.77
2018-04-14T11:12:32.127Z,1018.79
2018-04-14T11:13:59.620Z,1018.75
2018-04-14T11:15:26.722Z,1018.80
2018-04-14T11:16:53.922Z,1018.85
2018-04-14T11:18:21.358Z,1018.87
2018-04-14T11:19:48.715Z,1018.88
2018-04-14T11:21:16.076Z,1018.87
2018-04-14T11:22:43.291Z,1018.89
2018-04-14T11:24:10.682Z,1018.90
2018-04-14T11:25:37.638Z,1018.95
2018-04-14T11:27:04.756Z,1018.96
2018-04-14T11:28:32.050Z,1018.96
2018-04-14T11:29:59.474Z,1018.96
2018-04-14T11:31:26.922Z,1018.99
2018-04-14T11:32:54.324Z,1018.99
2018-04-14T11:34:21.467Z,1019.01
2018-04-14T11:35:48.733Z,1019.01
2018-04-14T11:37:16.076Z,1019.01
2018-04-14T11:38:43.332Z,1019.09
2018-04-14T11:40:10.789Z,1019.05
2018-04-14T11:41:37.917Z,1019.09
2018-04-14T11:43:05.314Z,1019.11
2018-04-14T11:44:32.627Z,1019.11
2018-04-14T11:46:00.054Z,1019.12
2018-04-14T11:47:27.370Z,1019.15
2018-04-14T11:48:54.539Z,1019.20
2018-04-14T11:50:21.995Z,1019.22
2018-04-14T11:51:49.242Z,1019.23
2018-04-14T11:53:16.660Z,1019.28
2018-04-14T11:54:49.784Z,1019.30
2018-04-14T11:56:11.040Z,1019.31
2018-04-14T11:57:38.265Z,1019.30
2018-04-14T11:59:05.437Z,1019.32
2018-04-14T12:00:32.605Z,1019.34
2018-04-14T12:01:59.878Z,1019.32
2018-04-14T12:03:27.283Z,1019.33
2018-04-14T12:04:54.590Z,1019.34
2018-04-14T12:06:21.993Z,1019.36
2018-04-14T12:07:49.336Z,1019.37
2018-04-14T12:09:16.743Z,1019.37
2018-04-14T12:10:43.477Z,1019.37
2018-04-14T12:12:10.763Z,1019.40
2018-04-14T12:13:38.039Z,1019.41
2018-04-14T12:15:05.405Z,1019.42
2018-04-14T12:16:32.830Z,1019.46
2018-04-14T12:17:59.976Z,1019.44
2018-04-14T12:19:27.386Z,1019.48
2018-04-14T12:20:54.226Z,1019.47
2018-04-14T12:22:21.653Z,1019.47
2018-04-14T12:23:48.927Z,1019.49
2018-04-14T12:25:16.045Z,1019.49
2018-04-14T12:26:43.331Z,1019.47
2018-04-14T12:28:10.340Z,1019.50
2018-04-14T12:29:37.712Z,1019.51
2018-04-14T12:31:05.161Z,1019.51
2018-04-14T12:32:31.864Z,1019.53
2018-04-14T12:33:59.402Z,1019.55
2018-04-14T12:35:26.619Z,1019.58
2018-04-14T12:36:54.063Z,1019.59
2018-04-14T12:38:21.389Z,1019.60
2018-04-14T12:39:48.326Z,1019.67
2018-04-14T12:41:15.589Z,1019.70
2018-04-14T12:42:42.808Z,1019.75
2018-04-14T12:44:09.991Z,1019.76
2018-04-14T12:45:37.409Z,1019.76
2018-04-14T12:47:04.777Z,1019.78
2018-04-14T12:48:32.067Z,1019.79
2018-04-14T12:49:59.399Z,1019.82
2018-04-14T12:51:26.828Z,1019.82
2018-04-14T12:52:54.246Z,1019.85
2018-04-14T12:54:21.611Z,1019.83
2018-04-14T12:55:48.841Z,1019.85
2018-04-14T12:57:16.263Z,1019.87
2018-04-14T12:58:43.512Z,1019.93
2018-04-14T13:00:10.833Z,1019.95
2018-04-14T13:01:38.006Z,1019.99
2018-04-14T13:03:05.379Z,1020.00
2018-04-14T13:04:32.718Z,1019.99
2018-04-14T13:06:00.196Z,1020.01
2018-04-14T13:07:27.518Z,1020.03
2018-04-14T13:08:54.963Z,1020.00
2018-04-14T13:10:22.248Z,1020.02
2018-04-14T13:11:49.585Z,1020.01
2018-04-14T13:13:16.715Z,1020.01
2018-04-14T13:14:44.109Z,1020.02
2018-04-14T13:16:11.297Z,1020.01
2018-04-14T13:17:38.466Z,1020.02
2018-04-14T13:19:05.724Z,1020.07
2018-04-14T13:20:33.162Z,1020.08
2018-04-14T13:22:00.469Z,1020.12
2018-04-14T13:23:27.730Z,1020.16
2018-04-14T13:24:54.930Z,1020.15
2018-04-14T13:26:22.151Z,1020.17
2018-04-14T13:27:49.591Z,1020.17
2018-04-14T13:29:16.864Z,1020.15
2018-04-14T13:30:44.184Z,1020.18
2018-04-14T13:32:11.446Z,1020.16
2018-04-14T13:33:38.663Z,1020.16
2018-04-14T13:35:05.924Z,1020.20
2018-04-14T13:36:33.097Z,1020.19
2018-04-14T13:38:00.265Z,1020.21
2018-04-14T13:39:27.046Z,1020.19
2018-04-14T13:40:54.025Z,1020.23
2018-04-14T13:42:21.295Z,1020.23
2018-04-14T13:43:48.486Z,1020.24
2018-04-14T13:45:15.778Z,1020.25
2018-04-14T13:46:42.954Z,1020.22
2018-04-14T13:48:10.276Z,1020.23
2018-04-14T13:49:37.580Z,1020.26
2018-04-14T13:51:04.832Z,1020.29
2018-04-14T13:52:32.124Z,1020.27
2018-04-14T13:53:59.280Z,1020.28
2018-04-14T13:55:26.620Z,1020.26
2018-04-14T13:56:53.514Z,1020.29
2018-04-14T13:58:20.693Z,1020.27
2018-04-14T13:59:47.760Z,1020.31
2018-04-14T14:01:15.135Z,1020.33
2018-04-14T14:02:42.346Z,1020.33
2018-04-14T14:04:09.354Z,1020.37
2018-04-14T14:05:36.604Z,1020.35
2018-04-14T14:07:03.634Z,1020.32
2018-04-14T14:08:30.866Z,1020.29
2018-04-14T14:09:58.118Z,1020.26
2018-04-14T14:11:25.418Z,1020.24
2018-04-14T14:12:52.704Z,1020.26
2018-04-14T14:14:20.063Z,1020.26
2018-04-14T14:15:46.963Z,1020.24
2018-04-14T14:17:14.070Z,1020.24
2018-04-14T14:18:41.333Z,1020.24
2018-04-14T14:20:08.419Z,1020.27
2018-04-14T14:21:35.777Z,1020.25
2018-04-14T14:23:03.149Z,1020.29
2018-04-14T14:24:30.163Z,1020.33
2018-04-14T14:25:57.493Z,1020.35
2018-04-14T14:27:24.640Z,1020.34
2018-04-14T14:28:52.171Z,1020.36
2018-04-14T14:30:19.259Z,1020.38
2018-04-14T14:31:46.728Z,1020.41
2018-04-14T14:33:13.959Z,1020.38
2018-04-14T14:34:41.404Z,1020.38
2018-04-14T14:36:08.558Z,1020.40
2018-04-14T14:37:36.036Z,1020.38
2018-04-14T14:39:03.139Z,1020.38
2018-04-14T14:40:30.551Z,1020.39
2018-04-14T14:41:57.835Z,1020.40
2018-04-14T14:43:25.136Z,1020.43
2018-04-14T14:44:52.429Z,1020.43
2018-04-14T14:46:19.576Z,1020.45
2018-04-14T14:47:46.982Z,1020.46
2018-04-14T14:49:14.430Z,1020.45
2018-04-14T14:50:40.906Z,1020.47
2018-04-14T14:52:07.949Z,1020.49
2018-04-14T14:53:35.165Z,1020.47
2018-04-14T14:55:02.428Z,1020.48
2018-04-14T14:56:29.691Z,1020.47
2018-04-14T14:57:57.211Z,1020.45
2018-04-14T14:59:24.532Z,1020.47
2018-04-14T15:00:51.767Z,1020.48
2018-04-14T15:02:19.160Z,1020.52
2018-04-14T15:03:46.259Z,1020.53
2018-04-14T15:05:13.710Z,1020.53
2018-04-14T15:06:40.963Z,1020.54
2018-04-14T15:08:08.144Z,1020.55
2018-04-14T15:09:35.553Z,1020.54
2018-04-14T15:11:02.936Z,1020.52
2018-04-14T15:12:30.112Z,1020.55
2018-04-14T15:13:57.429Z,1020.59
2018-04-14T15:15:24.832Z,1020.62
2018-04-14T15:16:51.994Z,1020.63
2018-04-14T15:18:19.414Z,1020.64
2018-04-14T15:19:46.663Z,1020.65
2018-04-14T15:21:13.960Z,1020.63
2018-04-14T15:22:40.885Z,1020.64
2018-04-14T15:24:08.062Z,1020.64
2018-04-14T15:25:35.469Z,1020.65
2018-04-14T15:27:02.662Z,1020.65
2018-04-14T15:28:29.994Z,1020.68
2018-04-14T15:29:57.321Z,1020.68
2018-04-14T15:31:24.746Z,1020.68
2018-04-14T15:32:51.928Z,1020.73
2018-04-14T15:34:19.128Z,1020.73
2018-04-14T15:35:46.350Z,1020.80
2018-04-14T15:37:13.546Z,1020.76
2018-04-14T15:38:40.825Z,1020.79
2018-04-14T15:40:07.738Z,1020.81
2018-04-14T15:41:34.955Z,1020.83
2018-04-14T15:43:02.235Z,1020.84
2018-04-14T15:44:29.308Z,1020.88
2018-04-14T15:45:56.643Z,1020.89
2018-04-14T15:47:23.904Z,1020.92
2018-04-14T15:48:51.425Z,1020.93
2018-04-14T15:50:18.025Z,1020.93
2018-04-14T15:51:45.263Z,1020.95
2018-04-14T15:53:12.267Z,1020.97
2018-04-14T15:54:38.892Z,1020.96
2018-04-14T15:56:06.592Z,1020.98
2018-04-14T15:57:33.797Z,1021.03
2018-04-14T15:59:01.043Z,1021.05
2018-04-14T16:00:28.212Z,1021.05
2018-04-14T16:01:55.485Z,1021.06
2018-04-14T16:03:22.711Z,1021.07
2018-04-14T16:04:49.864Z,1021.12
2018-04-14T16:06:17.334Z,1021.16
2018-04-14T16:07:44.496Z,1021.15
2018-04-14T16:09:11.697Z,1021.17
2018-04-14T16:10:38.975Z,1021.18
2018-04-14T16:12:06.024Z,1021.18
2018-04-14T16:13:33.031Z,1021.18
2018-04-14T16:15:00.315Z,1021.19
2018-04-14T16:16:27.389Z,1021.20
2018-04-14T16:17:54.526Z,1021.19
2018-04-14T16:19:21.894Z,1021.18
2018-04-14T16:20:49.093Z,1021.21
2018-04-14T16:22:16.480Z,1021.20
2018-04-14T16:23:43.773Z,1021.19
2018-04-14T16:25:10.782Z,1021.20
2018-04-14T16:26:37.921Z,1021.21
2018-04-14T16:28:05.293Z,1021.22
2018-04-14T16:29:32.031Z,1021.24
2018-04-14T16:30:58.995Z,1021.23
2018-04-14T16:32:26.321Z,1021.26
2018-04-14T16:33:53.474Z,1021.24
2018-04-14T16:35:20.941Z,1021.25
2018-04-14T16:36:48.333Z,1021.25
2018-04-14T16:38:15.691Z,1021.24
2018-04-14T16:39:42.844Z,1021.26
2018-04-14T16:41:10.047Z,1021.23
2018-04-14T16:42:37.284Z,1021.26
2018-04-14T16:44:04.421Z,1021.24
2018-04-14T16:45:31.748Z,1021.26
2018-04-14T16:46:59.083Z,1021.27
2018-04-14T16:48:25.634Z,1021.28
2018-04-14T16:49:52.954Z,1021.32
2018-04-14T16:51:19.950Z,1021.30
2018-04-14T16:52:47.266Z,1021.30
2018-04-14T16:54:14.379Z,1021.28
2018-04-14T16:55:41.629Z,1021.31
2018-04-14T16:57:08.883Z,1021.31
2018-04-14T16:58:35.770Z,1021.30
2018-04-14T17:00:02.833Z,1021.36
2018-04-14T17:01:30.084Z,1021.32
2018-04-14T17:02:57.373Z,1021.34
2018-04-14T17:04:24.701Z,1021.35
2018-04-14T17:05:51.997Z,1021.33
2018-04-14T17:07:19.430Z,1021.35
2018-04-14T17:08:46.589Z,1021.35
2018-04-14T17:10:13.983Z,1021.35
2018-04-14T17:11:41.331Z,1021.32
2018-04-14T17:13:08.522Z,1021.36
2018-04-14T17:14:35.945Z,1021.31
2018-04-14T17:16:03.241Z,1021.31
2018-04-14T17:17:30.184Z,1021.29
2018-04-14T17:18:57.517Z,1021.30
2018-04-14T17:20:25.021Z,1021.33
2018-04-14T17:21:52.393Z,1021.33
2018-04-14T17:23:19.655Z,1021.33
2018-04-14T17:24:47.101Z,1021.38
2018-04-14T17:26:14.486Z,1021.38
2018-04-14T17:27:41.634Z,1021.36
2018-04-14T17:29:08.842Z,1021.38
2018-04-14T17:30:36.142Z,1021.41
2018-04-14T17:32:03.521Z,1021.40
2018-04-14T17:33:30.815Z,1021.42
2018-04-14T17:34:58.144Z,1021.40